sensor_id;sensor_type;location;lat;lon;timestamp;pressure;altitude;pressure_sealevel;temperature;humidity
59487;BME280;45298;54.918;73.504;2023-04-24T00:00:45;98943.47;;;6.29;81.34
59487;BME280;45298;54.918;73.504;2023-04-24T00:03:13;98943.63;;;6.41;81.52
59487;BME280;45298;54.918;73.504;2023-04-24T00:05:42;98964.41;;;6.60;81.83
59487;BME280;45298;54.918;73.504;2023-04-24T00:08:11;98954.31;;;6.67;81.39
59487;BME280;45298;54.918;73.504;2023-04-24T00:10:41;98947.56;;;6.62;81.59
59487;BME280;45298;54.918;73.504;2023-04-24T00:13:09;98961.09;;;6.71;82.03
59487;BME280;45298;54.918;73.504;2023-04-24T00:15:38;98943.97;;;6.63;82.29
59487;BME280;45298;54.918;73.504;2023-04-24T00:18:07;98925.38;;;6.52;81.89
59487;BME280;45298;54.918;73.504;2023-04-24T00:20:36;98969.00;;;6.71;82.28
59487;BME280;45298;54.918;73.504;2023-04-24T00:23:04;98983.88;;;6.72;81.81
59487;BME280;45298;54.918;73.504;2023-04-24T00:25:33;98969.56;;;6.61;82.00
59487;BME280;45298;54.918;73.504;2023-04-24T00:28:02;98988.00;;;6.61;81.82
59487;BME280;45298;54.918;73.504;2023-04-24T00:30:31;98970.91;;;6.54;82.31
59487;BME280;45298;54.918;73.504;2023-04-24T00:32:59;98958.00;;;6.49;81.88
59487;BME280;45298;54.918;73.504;2023-04-24T00:35:28;98955.19;;;6.53;81.87
59487;BME280;45298;54.918;73.504;2023-04-24T00:37:57;98988.56;;;6.67;82.48
59487;BME280;45298;54.918;73.504;2023-04-24T00:40:27;98971.75;;;6.55;82.37
59487;BME280;45298;54.918;73.504;2023-04-24T00:42:56;98988.56;;;6.67;82.58
59487;BME280;45298;54.918;73.504;2023-04-24T00:45:25;98901.91;;;6.20;82.99
59487;BME280;45298;54.918;73.504;2023-04-24T00:47:54;98965.44;;;6.57;83.04
59487;BME280;45298;54.918;73.504;2023-04-24T00:50:24;98954.34;;;6.52;82.62
59487;BME280;45298;54.918;73.504;2023-04-24T00:52:53;98969.56;;;6.61;83.04
59487;BME280;45298;54.918;73.504;2023-04-24T00:55:23;98959.44;;;6.55;82.78
59487;BME280;45298;54.918;73.504;2023-04-24T00:57:53;98967.59;;;6.65;82.69
59487;BME280;45298;54.918;73.504;2023-04-24T01:00:22;98954.81;;;6.59;83.02
59487;BME280;45298;54.918;73.504;2023-04-24T01:02:51;98944.34;;;6.57;83.12
59487;BME280;45298;54.918;73.504;2023-04-24T01:05:21;98942.94;;;6.66;84.15
59487;BME280;45298;54.918;73.504;2023-04-24T01:07:50;98967.06;;;6.87;84.17
59487;BME280;45298;54.918;73.504;2023-04-24T01:10:19;98951.25;;;6.87;83.77
59487;BME280;45298;54.918;73.504;2023-04-24T01:12:48;98948.25;;;6.93;83.58
59487;BME280;45298;54.918;73.504;2023-04-24T01:15:17;98932.63;;;6.90;84.44
59487;BME280;45298;54.918;73.504;2023-04-24T01:17:46;98919.63;;;6.87;84.25
59487;BME280;45298;54.918;73.504;2023-04-24T01:20:16;98942.28;;;7.17;85.30
59487;BME280;45298;54.918;73.504;2023-04-24T01:22:45;98929.09;;;7.17;85.23
59487;BME280;45298;54.918;73.504;2023-04-24T01:25:15;99001.25;;;7.44;85.20
59487;BME280;45298;54.918;73.504;2023-04-24T01:27:44;98958.97;;;7.18;85.12
59487;BME280;45298;54.918;73.504;2023-04-24T01:30:13;98978.22;;;7.33;85.48
59487;BME280;45298;54.918;73.504;2023-04-24T01:32:45;99016.22;;;7.43;85.27
59487;BME280;45298;54.918;73.504;2023-04-24T01:35:14;98891.22;;;6.78;85.70
59487;BME280;45298;54.918;73.504;2023-04-24T01:37:43;98998.31;;;7.48;85.59
59487;BME280;45298;54.918;73.504;2023-04-24T01:40:12;98993.03;;;7.48;86.07
59487;BME280;45298;54.918;73.504;2023-04-24T01:42:42;98986.47;;;7.41;85.97
59487;BME280;45298;54.918;73.504;2023-04-24T01:45:11;98993.66;;;7.52;85.31
59487;BME280;45298;54.918;73.504;2023-04-24T01:47:41;99021.16;;;7.62;85.35
59487;BME280;45298;54.918;73.504;2023-04-24T01:50:11;99036.88;;;7.64;85.65
59487;BME280;45298;54.918;73.504;2023-04-24T01:52:40;99021.34;;;7.59;85.09
59487;BME280;45298;54.918;73.504;2023-04-24T01:55:10;99022.94;;;7.62;85.48
59487;BME280;45298;54.918;73.504;2023-04-24T01:57:39;98991.75;;;7.41;86.03
59487;BME280;45298;54.918;73.504;2023-04-24T02:00:09;99026.03;;;7.81;85.01
59487;BME280;45298;54.918;73.504;2023-04-24T02:02:40;99007.56;;;7.81;85.42
59487;BME280;45298;54.918;73.504;2023-04-24T02:05:14;99018.78;;;7.98;84.56
59487;BME280;45298;54.918;73.504;2023-04-24T02:07:45;99039.81;;;8.12;84.59
59487;BME280;45298;54.918;73.504;2023-04-24T02:10:14;99032.00;;;8.11;85.03
59487;BME280;45298;54.918;73.504;2023-04-24T02:12:43;99037.69;;;8.17;84.56
59487;BME280;45298;54.918;73.504;2023-04-24T02:15:12;99025.44;;;8.16;84.21
59487;BME280;45298;54.918;73.504;2023-04-24T02:17:41;99042.16;;;8.30;83.48
59487;BME280;45298;54.918;73.504;2023-04-24T02:20:10;99031.25;;;8.35;83.11
59487;BME280;45298;54.918;73.504;2023-04-24T02:22:39;99014.47;;;8.36;83.04
59487;BME280;45298;54.918;73.504;2023-04-24T02:25:08;99052.19;;;8.64;83.42
59487;BME280;45298;54.918;73.504;2023-04-24T02:27:36;98975.91;;;8.20;82.81
59487;BME280;45298;54.918;73.504;2023-04-24T02:30:06;99037.25;;;8.75;83.05
59487;BME280;45298;54.918;73.504;2023-04-24T02:32:35;99047.16;;;9.11;82.06
59487;BME280;45298;54.918;73.504;2023-04-24T02:35:04;99062.09;;;9.36;81.61
59487;BME280;45298;54.918;73.504;2023-04-24T02:37:34;99054.75;;;9.40;81.34
59487;BME280;45298;54.918;73.504;2023-04-24T02:40:03;99043.66;;;9.34;81.03
59487;BME280;45298;54.918;73.504;2023-04-24T02:42:32;99047.16;;;9.35;81.09
59487;BME280;45298;54.918;73.504;2023-04-24T02:45:01;99068.59;;;9.43;80.68
59487;BME280;45298;54.918;73.504;2023-04-24T02:47:30;99077.44;;;9.55;81.24
59487;BME280;45298;54.918;73.504;2023-04-24T02:49:59;99077.84;;;9.62;80.71
59487;BME280;45298;54.918;73.504;2023-04-24T02:52:28;99083.59;;;9.56;80.40
59487;BME280;45298;54.918;73.504;2023-04-24T02:54:57;99070.53;;;9.41;80.49
59487;BME280;45298;54.918;73.504;2023-04-24T02:57:26;99075.41;;;9.34;80.96
59487;BME280;45298;54.918;73.504;2023-04-24T02:59:55;99088.63;;;9.34;81.10
59487;BME280;45298;54.918;73.504;2023-04-24T03:02:24;99068.78;;;9.29;81.03
59487;BME280;45298;54.918;73.504;2023-04-24T03:04:53;99080.47;;;9.37;81.06
59487;BME280;45298;54.918;73.504;2023-04-24T03:07:23;99102.00;;;9.57;81.06
59487;BME280;45298;54.918;73.504;2023-04-24T03:09:52;99101.63;;;9.50;80.28
59487;BME280;45298;54.918;73.504;2023-04-24T03:12:21;99107.31;;;9.57;80.10
59487;BME280;45298;54.918;73.504;2023-04-24T03:14:52;99122.53;;;9.66;80.55
59487;BME280;45298;54.918;73.504;2023-04-24T03:17:20;99054.47;;;9.56;80.25
59487;BME280;45298;54.918;73.504;2023-04-24T03:19:49;99116.97;;;10.18;79.96
59487;BME280;45298;54.918;73.504;2023-04-24T03:22:18;99135.06;;;10.36;79.47
59487;BME280;45298;54.918;73.504;2023-04-24T03:24:47;99120.84;;;10.37;78.85
59487;BME280;45298;54.918;73.504;2023-04-24T03:27:17;99127.47;;;10.31;78.52
59487;BME280;45298;54.918;73.504;2023-04-24T03:30:13;99147.94;;;10.18;78.09
59487;BME280;45298;54.918;73.504;2023-04-24T03:32:50;99142.41;;;9.96;78.29
59487;BME280;45298;54.918;73.504;2023-04-24T03:35:23;99168.66;;;10.00;78.59
59487;BME280;45298;54.918;73.504;2023-04-24T03:37:53;99151.19;;;9.73;78.61
59487;BME280;45298;54.918;73.504;2023-04-24T03:40:51;99162.47;;;9.63;78.51
59487;BME280;45298;54.918;73.504;2023-04-24T03:43:46;99178.22;;;9.65;78.86
59487;BME280;45298;54.918;73.504;2023-04-24T03:46:16;99193.06;;;9.67;79.01
59487;BME280;45298;54.918;73.504;2023-04-24T03:48:51;99168.41;;;9.54;79.31
59487;BME280;45298;54.918;73.504;2023-04-24T03:51:24;99168.66;;;9.51;79.73
59487;BME280;45298;54.918;73.504;2023-04-24T03:53:56;99174.34;;;9.58;79.26
59487;BME280;45298;54.918;73.504;2023-04-24T03:56:28;99190.84;;;9.61;79.51
59487;BME280;45298;54.918;73.504;2023-04-24T03:58:57;99207.25;;;9.66;79.60
59487;BME280;45298;54.918;73.504;2023-04-24T04:01:26;99209.81;;;9.55;79.60
59487;BME280;45298;54.918;73.504;2023-04-24T04:04:06;99149.97;;;9.15;79.43
59487;BME280;45298;54.918;73.504;2023-04-24T04:06:37;99207.72;;;9.47;79.25
59487;BME280;45298;54.918;73.504;2023-04-24T04:09:07;99212.81;;;9.37;79.40
59487;BME280;45298;54.918;73.504;2023-04-24T04:11:37;99213.25;;;9.31;79.99
59487;BME280;45298;54.918;73.504;2023-04-24T04:14:06;99228.69;;;9.37;80.13
59487;BME280;45298;54.918;73.504;2023-04-24T04:16:38;99220.88;;;9.23;79.42
59487;BME280;45298;54.918;73.504;2023-04-24T04:19:08;99242.78;;;9.38;80.25
59487;BME280;45298;54.918;73.504;2023-04-24T04:21:38;99183.44;;;9.03;80.38
59487;BME280;45298;54.918;73.504;2023-04-24T04:24:19;99241.19;;;9.35;79.86
59487;BME280;45298;54.918;73.504;2023-04-24T04:26:52;99241.84;;;9.39;79.99
59487;BME280;45298;54.918;73.504;2023-04-24T04:29:28;99243.53;;;9.27;79.90
59487;BME280;45298;54.918;73.504;2023-04-24T04:31:58;99275.28;;;9.40;80.60
59487;BME280;45298;54.918;73.504;2023-04-24T04:34:27;99276.25;;;9.39;80.33
59487;BME280;45298;54.918;73.504;2023-04-24T04:36:58;99252.41;;;9.26;80.69
59487;BME280;45298;54.918;73.504;2023-04-24T04:39:42;99245.03;;;9.31;80.84
59487;BME280;45298;54.918;73.504;2023-04-24T04:42:17;99267.31;;;9.53;80.94
59487;BME280;45298;54.918;73.504;2023-04-24T04:44:47;99257.88;;;9.62;80.74
59487;BME280;45298;54.918;73.504;2023-04-24T04:47:21;99275.53;;;9.87;80.48
59487;BME280;45298;54.918;73.504;2023-04-24T04:49:55;99278.59;;;9.81;79.85
59487;BME280;45298;54.918;73.504;2023-04-24T04:52:26;99253.22;;;9.65;79.72
59487;BME280;45298;54.918;73.504;2023-04-24T04:55:05;99298.31;;;9.77;80.07
59487;BME280;45298;54.918;73.504;2023-04-24T04:58:00;99290.81;;;9.71;79.92
59487;BME280;45298;54.918;73.504;2023-04-24T05:00:29;99300.69;;;9.68;80.15
59487;BME280;45298;54.918;73.504;2023-04-24T05:03:13;99318.25;;;9.70;80.03
59487;BME280;45298;54.918;73.504;2023-04-24T05:05:55;99310.59;;;9.78;80.30
59487;BME280;45298;54.918;73.504;2023-04-24T05:08:25;99214.09;;;9.19;79.66
59487;BME280;45298;54.918;73.504;2023-04-24T05:10:55;99319.50;;;9.77;79.57
59487;BME280;45298;54.918;73.504;2023-04-24T05:13:27;99317.94;;;9.74;79.12
59487;BME280;45298;54.918;73.504;2023-04-24T05:16:15;99341.09;;;9.83;79.03
59487;BME280;45298;54.918;73.504;2023-04-24T05:18:44;99337.91;;;9.91;79.11
59487;BME280;45298;54.918;73.504;2023-04-24T05:21:17;99355.69;;;10.02;78.49
59487;BME280;45298;54.918;73.504;2023-04-24T05:23:50;99340.88;;;9.87;78.75
59487;BME280;45298;54.918;73.504;2023-04-24T05:26:41;99373.53;;;10.00;78.28
59487;BME280;45298;54.918;73.504;2023-04-24T05:29:11;99352.66;;;9.82;78.46
59487;BME280;45298;54.918;73.504;2023-04-24T05:31:41;99360.28;;;9.74;78.06
59487;BME280;45298;54.918;73.504;2023-04-24T05:34:10;99383.06;;;9.77;78.28
59487;BME280;45298;54.918;73.504;2023-04-24T05:36:43;99366.13;;;9.66;78.03
59487;BME280;45298;54.918;73.504;2023-04-24T05:39:12;99390.25;;;9.75;77.85
59487;BME280;45298;54.918;73.504;2023-04-24T05:41:41;99387.94;;;9.70;77.83
59487;BME280;45298;54.918;73.504;2023-04-24T05:44:10;99396.84;;;9.69;77.19
59487;BME280;45298;54.918;73.504;2023-04-24T05:46:39;99404.25;;;9.77;76.62
59487;BME280;45298;54.918;73.504;2023-04-24T05:49:10;99411.25;;;9.78;76.69
59487;BME280;45298;54.918;73.504;2023-04-24T05:51:41;99431.28;;;9.95;75.94
59487;BME280;45298;54.918;73.504;2023-04-24T05:54:10;99419.94;;;10.06;76.19
59487;BME280;45298;54.918;73.504;2023-04-24T05:56:40;99429.53;;;10.33;75.01
59487;BME280;45298;54.918;73.504;2023-04-24T05:59:13;99420.91;;;10.68;75.03
59487;BME280;45298;54.918;73.504;2023-04-24T06:01:42;99429.84;;;11.02;72.48
59487;BME280;45298;54.918;73.504;2023-04-24T06:04:16;99427.06;;;11.17;72.15
59487;BME280;45298;54.918;73.504;2023-04-24T06:06:46;99450.09;;;11.28;71.36
59487;BME280;45298;54.918;73.504;2023-04-24T06:09:19;99458.31;;;11.60;70.58
59487;BME280;45298;54.918;73.504;2023-04-24T06:11:49;99458.28;;;11.85;68.36
59487;BME280;45298;54.918;73.504;2023-04-24T06:14:25;99469.69;;;12.21;67.81
59487;BME280;45298;54.918;73.504;2023-04-24T06:17:17;99457.59;;;12.39;67.06
59487;BME280;45298;54.918;73.504;2023-04-24T06:19:50;99446.94;;;12.62;66.46
59487;BME280;45298;54.918;73.504;2023-04-24T06:22:20;99474.94;;;13.00;65.18
59487;BME280;45298;54.918;73.504;2023-04-24T06:24:49;99471.75;;;13.18;64.46
59487;BME280;45298;54.918;73.504;2023-04-24T06:27:18;99486.81;;;13.40;62.60
59487;BME280;45298;54.918;73.504;2023-04-24T06:29:47;99474.34;;;13.41;62.86
59487;BME280;45298;54.918;73.504;2023-04-24T06:32:23;99475.41;;;13.71;62.42
59487;BME280;45298;54.918;73.504;2023-04-24T06:34:53;99419.78;;;13.56;62.30
59487;BME280;45298;54.918;73.504;2023-04-24T06:37:24;99472.25;;;14.08;61.79
59487;BME280;45298;54.918;73.504;2023-04-24T06:39:53;99470.94;;;14.24;60.07
59487;BME280;45298;54.918;73.504;2023-04-24T06:42:22;99483.94;;;14.38;59.87
59487;BME280;45298;54.918;73.504;2023-04-24T06:44:52;99475.56;;;14.53;59.35
59487;BME280;45298;54.918;73.504;2023-04-24T06:47:20;99479.59;;;14.78;57.85
59487;BME280;45298;54.918;73.504;2023-04-24T06:49:49;99482.03;;;14.91;56.29
59487;BME280;45298;54.918;73.504;2023-04-24T06:52:20;99442.44;;;14.65;55.17
59487;BME280;45298;54.918;73.504;2023-04-24T06:54:49;99488.22;;;15.01;54.17
59487;BME280;45298;54.918;73.504;2023-04-24T06:57:19;99485.28;;;15.04;54.72
59487;BME280;45298;54.918;73.504;2023-04-24T06:59:48;99471.66;;;15.07;53.65
59487;BME280;45298;54.918;73.504;2023-04-24T07:02:18;99487.84;;;15.45;53.65
59487;BME280;45298;54.918;73.504;2023-04-24T07:04:47;99494.44;;;15.31;53.49
59487;BME280;45298;54.918;73.504;2023-04-24T07:07:18;99498.53;;;15.35;53.33
59487;BME280;45298;54.918;73.504;2023-04-24T07:09:47;99502.19;;;15.15;53.46
59487;BME280;45298;54.918;73.504;2023-04-24T07:12:16;99532.81;;;15.10;53.63
59487;BME280;45298;54.918;73.504;2023-04-24T07:14:48;99528.78;;;14.75;53.79
59487;BME280;45298;54.918;73.504;2023-04-24T07:17:19;99526.63;;;14.69;54.04
59487;BME280;45298;54.918;73.504;2023-04-24T07:19:48;99547.19;;;14.57;53.74
59487;BME280;45298;54.918;73.504;2023-04-24T07:22:18;99526.03;;;14.34;54.66
59487;BME280;45298;54.918;73.504;2023-04-24T07:24:47;99541.97;;;14.25;54.36
59487;BME280;45298;54.918;73.504;2023-04-24T07:27:15;99557.91;;;14.15;55.15
59487;BME280;45298;54.918;73.504;2023-04-24T07:29:46;99566.31;;;14.10;54.86
59487;BME280;45298;54.918;73.504;2023-04-24T07:32:15;99562.41;;;14.14;53.52
59487;BME280;45298;54.918;73.504;2023-04-24T07:34:44;99559.28;;;14.09;53.90
59487;BME280;45298;54.918;73.504;2023-04-24T07:37:13;99556.69;;;14.40;53.77
59487;BME280;45298;54.918;73.504;2023-04-24T07:39:45;99574.81;;;14.46;52.78
59487;BME280;45298;54.918;73.504;2023-04-24T07:42:14;99604.91;;;14.27;53.08
59487;BME280;45298;54.918;73.504;2023-04-24T07:44:43;99601.69;;;14.12;53.63
59487;BME280;45298;54.918;73.504;2023-04-24T07:47:12;99574.22;;;13.79;54.42
59487;BME280;45298;54.918;73.504;2023-04-24T07:49:41;99612.53;;;13.67;54.86
59487;BME280;45298;54.918;73.504;2023-04-24T07:52:11;99602.94;;;13.43;54.78
59487;BME280;45298;54.918;73.504;2023-04-24T07:54:40;99637.44;;;13.33;55.10
59487;BME280;45298;54.918;73.504;2023-04-24T07:57:09;99627.63;;;13.11;55.31
59487;BME280;45298;54.918;73.504;2023-04-24T07:59:38;99638.63;;;12.95;56.23
59487;BME280;45298;54.918;73.504;2023-04-24T08:02:06;99654.47;;;12.85;57.05
59487;BME280;45298;54.918;73.504;2023-04-24T08:04:35;99583.19;;;12.32;57.46
59487;BME280;45298;54.918;73.504;2023-04-24T08:07:05;99657.22;;;12.61;58.36
59487;BME280;45298;54.918;73.504;2023-04-24T08:09:33;99665.66;;;12.43;58.86
59487;BME280;45298;54.918;73.504;2023-04-24T08:12:02;99664.59;;;12.10;59.94
59487;BME280;45298;54.918;73.504;2023-04-24T08:14:31;99663.31;;;11.78;60.04
59487;BME280;45298;54.918;73.504;2023-04-24T08:17:00;99688.75;;;11.70;61.14
59487;BME280;45298;54.918;73.504;2023-04-24T08:19:30;99694.22;;;11.55;61.71
59487;BME280;45298;54.918;73.504;2023-04-24T08:21:59;99666.75;;;11.30;62.45
59487;BME280;45298;54.918;73.504;2023-04-24T08:24:28;99702.22;;;11.29;62.97
59487;BME280;45298;54.918;73.504;2023-04-24T08:26:57;99692.56;;;11.15;62.61
59487;BME280;45298;54.918;73.504;2023-04-24T08:29:26;99722.44;;;11.06;63.69
59487;BME280;45298;54.918;73.504;2023-04-24T08:31:55;99719.97;;;10.90;64.09
59487;BME280;45298;54.918;73.504;2023-04-24T08:34:24;99723.91;;;10.84;64.22
59487;BME280;45298;54.918;73.504;2023-04-24T08:36:53;99725.56;;;10.60;64.92
59487;BME280;45298;54.918;73.504;2023-04-24T08:39:22;99738.41;;;10.66;64.90
59487;BME280;45298;54.918;73.504;2023-04-24T08:41:52;99742.97;;;10.64;65.08
59487;BME280;45298;54.918;73.504;2023-04-24T08:44:21;99697.47;;;10.30;65.32
59487;BME280;45298;54.918;73.504;2023-04-24T08:46:50;99713.84;;;10.09;66.21
59487;BME280;45298;54.918;73.504;2023-04-24T08:49:20;99778.78;;;10.29;66.19
59487;BME280;45298;54.918;73.504;2023-04-24T08:51:50;99760.38;;;10.13;66.16
59487;BME280;45298;54.918;73.504;2023-04-24T08:54:21;99758.91;;;10.09;66.58
59487;BME280;45298;54.918;73.504;2023-04-24T08:56:50;99769.28;;;10.12;66.42
59487;BME280;45298;54.918;73.504;2023-04-24T08:59:22;99764.66;;;10.01;66.68
59487;BME280;45298;54.918;73.504;2023-04-24T09:01:51;99793.63;;;10.04;66.75
59487;BME280;45298;54.918;73.504;2023-04-24T09:04:22;99770.88;;;9.73;67.02
59487;BME280;45298;54.918;73.504;2023-04-24T09:06:58;99797.56;;;9.55;66.87
59487;BME280;45298;54.918;73.504;2023-04-24T09:09:29;99806.94;;;9.61;66.36
59487;BME280;45298;54.918;73.504;2023-04-24T09:11:59;99806.06;;;9.60;65.94
59487;BME280;45298;54.918;73.504;2023-04-24T09:14:29;99821.97;;;9.89;66.03
59487;BME280;45298;54.918;73.504;2023-04-24T09:16:59;99844.41;;;10.25;65.66
59487;BME280;45298;54.918;73.504;2023-04-24T09:19:28;99806.97;;;10.45;64.05
59487;BME280;45298;54.918;73.504;2023-04-24T09:21:57;99810.28;;;10.88;63.08
59487;BME280;45298;54.918;73.504;2023-04-24T09:24:26;99837.63;;;11.16;61.53
59487;BME280;45298;54.918;73.504;2023-04-24T09:26:58;99813.09;;;11.26;60.30
59487;BME280;45298;54.918;73.504;2023-04-24T09:29:27;99825.09;;;11.57;58.59
59487;BME280;45298;54.918;73.504;2023-04-24T09:31:56;99824.03;;;11.73;58.11
59487;BME280;45298;54.918;73.504;2023-04-24T09:34:27;99830.28;;;11.85;57.24
59487;BME280;45298;54.918;73.504;2023-04-24T09:36:56;99841.22;;;11.67;57.60
59487;BME280;45298;54.918;73.504;2023-04-24T09:39:24;99789.72;;;11.05;57.21
59487;BME280;45298;54.918;73.504;2023-04-24T09:41:56;99798.19;;;10.84;57.45
59487;BME280;45298;54.918;73.504;2023-04-24T09:44:27;99844.00;;;11.27;57.10
59487;BME280;45298;54.918;73.504;2023-04-24T09:46:58;99834.13;;;11.42;55.76
59487;BME280;45298;54.918;73.504;2023-04-24T09:49:28;99860.69;;;11.81;53.97
59487;BME280;45298;54.918;73.504;2023-04-24T09:52:09;99851.22;;;12.02;52.33
59487;BME280;45298;54.918;73.504;2023-04-24T09:54:39;99857.00;;;12.20;49.88
59487;BME280;45298;54.918;73.504;2023-04-24T09:57:08;99859.50;;;12.11;49.09
59487;BME280;45298;54.918;73.504;2023-04-24T09:59:42;99857.22;;;12.17;48.34
59487;BME280;45298;54.918;73.504;2023-04-24T10:02:18;99853.88;;;12.15;46.43
59487;BME280;45298;54.918;73.504;2023-04-24T10:04:56;99880.63;;;12.25;46.17
59487;BME280;45298;54.918;73.504;2023-04-24T10:07:28;99878.28;;;12.20;47.09
59487;BME280;45298;54.918;73.504;2023-04-24T10:09:57;99845.63;;;12.18;47.24
59487;BME280;45298;54.918;73.504;2023-04-24T10:12:27;99872.50;;;12.39;45.34
59487;BME280;45298;54.918;73.504;2023-04-24T10:14:57;99865.72;;;12.60;45.39
59487;BME280;45298;54.918;73.504;2023-04-24T10:17:28;99835.50;;;12.36;45.54
59487;BME280;45298;54.918;73.504;2023-04-24T10:19:58;99885.56;;;12.80;44.79
59487;BME280;45298;54.918;73.504;2023-04-24T10:22:29;99821.84;;;12.41;45.28
59487;BME280;45298;54.918;73.504;2023-04-24T10:24:59;99823.19;;;12.47;45.22
59487;BME280;45298;54.918;73.504;2023-04-24T10:27:30;99857.72;;;12.60;44.35
59487;BME280;45298;54.918;73.504;2023-04-24T10:30:00;99820.88;;;12.42;43.28
59487;BME280;45298;54.918;73.504;2023-04-24T10:32:30;99886.38;;;12.80;42.52
59487;BME280;45298;54.918;73.504;2023-04-24T10:34:59;99874.09;;;12.66;39.49
59487;BME280;45298;54.918;73.504;2023-04-24T10:37:28;99898.78;;;12.68;37.03
59487;BME280;45298;54.918;73.504;2023-04-24T10:40:04;99902.47;;;12.54;35.60
59487;BME280;45298;54.918;73.504;2023-04-24T10:42:40;99876.38;;;12.22;34.24
59487;BME280;45298;54.918;73.504;2023-04-24T10:45:20;99917.88;;;12.25;32.86
59487;BME280;45298;54.918;73.504;2023-04-24T10:48:02;99866.00;;;11.81;33.02
59487;BME280;45298;54.918;73.504;2023-04-24T10:50:50;99952.75;;;12.20;33.01
59487;BME280;45298;54.918;73.504;2023-04-24T10:53:24;99943.59;;;12.12;32.96
59487;BME280;45298;54.918;73.504;2023-04-24T10:56:07;99956.91;;;12.12;33.20
59487;BME280;45298;54.918;73.504;2023-04-24T10:58:41;99936.50;;;11.99;33.40
59487;BME280;45298;54.918;73.504;2023-04-24T11:01:31;99941.25;;;11.94;33.44
59487;BME280;45298;54.918;73.504;2023-04-24T11:04:04;99950.81;;;11.97;35.21
59487;BME280;45298;54.918;73.504;2023-04-24T11:06:36;99949.63;;;11.88;35.21
59487;BME280;45298;54.918;73.504;2023-04-24T11:09:10;99925.50;;;11.78;35.30
59487;BME280;45298;54.918;73.504;2023-04-24T11:11:45;99884.59;;;11.55;35.14
59487;BME280;45298;54.918;73.504;2023-04-24T11:14:15;99947.09;;;11.86;35.11
59487;BME280;45298;54.918;73.504;2023-04-24T11:16:51;99964.41;;;11.92;35.35
59487;BME280;45298;54.918;73.504;2023-04-24T11:19:23;99942.84;;;11.84;35.31
59487;BME280;45298;54.918;73.504;2023-04-24T11:24:49;99961.53;;;11.82;34.33
59487;BME280;45298;54.918;73.504;2023-04-24T11:27:31;99961.22;;;11.74;34.77
59487;BME280;45298;54.918;73.504;2023-04-24T11:30:02;99966.44;;;11.75;34.46
59487;BME280;45298;54.918;73.504;2023-04-24T11:32:41;99964.13;;;11.84;34.66
59487;BME280;45298;54.918;73.504;2023-04-24T11:35:22;99957.50;;;11.76;34.06
59487;BME280;45298;54.918;73.504;2023-04-24T11:37:57;99988.47;;;11.90;33.20
59487;BME280;45298;54.918;73.504;2023-04-24T11:40:29;99967.31;;;11.76;32.35
59487;BME280;45298;54.918;73.504;2023-04-24T11:43:00;100004.28;;;11.92;32.53
59487;BME280;45298;54.918;73.504;2023-04-24T11:45:30;100005.03;;;11.94;31.93
59487;BME280;45298;54.918;73.504;2023-04-24T11:47:59;99987.69;;;11.75;30.84
59487;BME280;45298;54.918;73.504;2023-04-24T11:50:28;100008.41;;;11.83;31.12
59487;BME280;45298;54.918;73.504;2023-04-24T11:52:57;100011.47;;;11.77;30.76
59487;BME280;45298;54.918;73.504;2023-04-24T11:55:29;100035.50;;;11.75;30.46
59487;BME280;45298;54.918;73.504;2023-04-24T11:57:59;100049.06;;;11.58;29.75
59487;BME280;45298;54.918;73.504;2023-04-24T12:00:30;100036.63;;;11.45;30.38
59487;BME280;45298;54.918;73.504;2023-04-24T12:03:08;100011.47;;;11.24;30.77
59487;BME280;45298;54.918;73.504;2023-04-24T12:05:38;99982.56;;;10.92;30.67
59487;BME280;45298;54.918;73.504;2023-04-24T12:08:08;100033.00;;;11.19;30.52
59487;BME280;45298;54.918;73.504;2023-04-24T12:10:37;100035.38;;;11.09;29.55
59487;BME280;45298;54.918;73.504;2023-04-24T12:13:09;100064.56;;;11.24;29.55
59487;BME280;45298;54.918;73.504;2023-04-24T12:15:40;100058.44;;;11.09;29.90
59487;BME280;45298;54.918;73.504;2023-04-24T12:18:12;100052.38;;;11.07;30.07
59487;BME280;45298;54.918;73.504;2023-04-24T12:20:41;100075.78;;;11.14;30.42
59487;BME280;45298;54.918;73.504;2023-04-24T12:23:10;100059.69;;;11.03;30.55
59487;BME280;45298;54.918;73.504;2023-04-24T12:25:39;100052.31;;;10.94;30.48
59487;BME280;45298;54.918;73.504;2023-04-24T12:28:11;100068.97;;;10.96;30.63
59487;BME280;45298;54.918;73.504;2023-04-24T12:30:46;100011.59;;;10.51;30.29
59487;BME280;45298;54.918;73.504;2023-04-24T12:33:20;100094.19;;;10.88;30.21
59487;BME280;45298;54.918;73.504;2023-04-24T12:35:53;100080.28;;;10.70;30.43
59487;BME280;45298;54.918;73.504;2023-04-24T12:38:24;100085.88;;;10.66;30.52
59487;BME280;45298;54.918;73.504;2023-04-24T12:41:04;100096.09;;;10.72;30.81
59487;BME280;45298;54.918;73.504;2023-04-24T12:43:34;100090.50;;;10.62;30.75
59487;BME280;45298;54.918;73.504;2023-04-24T12:46:04;100091.56;;;10.60;30.30
59487;BME280;45298;54.918;73.504;2023-04-24T12:48:33;100100.28;;;10.62;30.07
59487;BME280;45298;54.918;73.504;2023-04-24T12:51:02;100120.91;;;10.56;29.71
59487;BME280;45298;54.918;73.504;2023-04-24T12:53:31;100119.03;;;10.44;29.75
59487;BME280;45298;54.918;73.504;2023-04-24T12:56:00;100102.47;;;10.24;29.80
59487;BME280;45298;54.918;73.504;2023-04-24T12:58:29;100123.97;;;10.20;29.94
59487;BME280;45298;54.918;73.504;2023-04-24T13:00:58;100140.22;;;10.13;29.90
59487;BME280;45298;54.918;73.504;2023-04-24T13:03:27;100138.38;;;10.00;29.88
59487;BME280;45298;54.918;73.504;2023-04-24T13:05:56;100152.56;;;9.98;29.44
59487;BME280;45298;54.918;73.504;2023-04-24T13:08:24;100144.41;;;9.87;29.98
59487;BME280;45298;54.918;73.504;2023-04-24T13:10:53;100150.03;;;9.81;30.25
59487;BME280;45298;54.918;73.504;2023-04-24T13:13:22;100149.59;;;9.73;30.57
59487;BME280;45298;54.918;73.504;2023-04-24T13:15:51;100140.25;;;9.51;30.69